createdAt,value
2024-01-15T00:01:20.542Z,92587.72
2024-01-15T00:03:48.100Z,92610.81
2024-01-15T00:06:15.212Z,92626.19
2024-01-15T00:08:41.692Z,92613.72
2024-01-15T00:11:08.162Z,92599.19
2024-01-15T00:13:34.741Z,92604.13
2024-01-15T00:16:01.283Z,92582.03
2024-01-15T00:18:28.034Z,92595.56
2024-01-15T00:20:54.597Z,92603.78
2024-01-15T00:23:21.114Z,92590.06
2024-01-15T00:25:47.570Z,92608.97
2024-01-15T00:28:14.019Z,92611.22
2024-01-15T00:30:40.709Z,92558.00
2024-01-15T00:33:07.435Z,92532.50
2024-01-15T00:35:41.304Z,92534.97
2024-01-15T00:38:08.661Z,92560.00
2024-01-15T00:40:35.130Z,92572.25
2024-01-15T00:43:01.643Z,92606.13
2024-01-15T00:45:28.079Z,92592.13
2024-01-15T00:47:57.663Z,92574.97
2024-01-15T00:50:24.215Z,92562.25
2024-01-15T00:52:50.682Z,92578.47
2024-01-15T00:55:17.130Z,92501.78
2024-01-15T00:57:43.651Z,92553.94
2024-01-15T01:00:22.397Z,92597.13
2024-01-15T01:02:48.911Z,92576.09
2024-01-15T01:05:15.431Z,92593.16
2024-01-15T01:07:41.923Z,92557.81
2024-01-15T01:10:08.810Z,92600.47
2024-01-15T01:12:36.293Z,92601.38
2024-01-15T01:15:03.104Z,92588.28
2024-01-15T01:17:29.794Z,92587.59
2024-01-15T01:19:56.423Z,92591.97
2024-01-15T01:22:23.002Z,92615.72
2024-01-15T01:24:53.538Z,92609.91
2024-01-15T01:27:20.004Z,92595.16
2024-01-15T01:29:52.923Z,92606.38
2024-01-15T01:32:19.572Z,92634.06
2024-01-15T01:34:46.276Z,92637.22
2024-01-15T01:37:14.568Z,92626.06
2024-01-15T01:39:42.238Z,92582.75
2024-01-15T01:42:09.211Z,92644.63
2024-01-15T01:44:35.838Z,92608.13
2024-01-15T01:47:02.598Z,92636.06
2024-01-15T01:49:29.664Z,92617.00
2024-01-15T01:52:01.245Z,92643.13
2024-01-15T01:54:30.989Z,92607.91
2024-01-15T01:56:58.785Z,92626.78
2024-01-15T01:59:28.628Z,92619.31
2024-01-15T02:01:59.574Z,92574.56
2024-01-15T02:04:29.156Z,92614.94
2024-01-15T02:06:55.714Z,92624.28
2024-01-15T02:09:22.400Z,92584.53
2024-01-15T02:11:49.109Z,92640.00
2024-01-15T02:14:28.154Z,92616.59
2024-01-15T02:16:55.656Z,92594.22
2024-01-15T02:19:22.250Z,92649.63
2024-01-15T02:21:48.898Z,92620.16
2024-01-15T02:24:15.526Z,92626.72
2024-01-15T02:26:42.121Z,92639.72
2024-01-15T02:29:11.893Z,92637.47
2024-01-15T02:31:38.809Z,92649.53
2024-01-15T02:34:05.660Z,92631.06
2024-01-15T02:36:32.324Z,92614.69
2024-01-15T02:38:58.878Z,92653.31
2024-01-15T02:41:25.316Z,92650.09
2024-01-15T02:43:51.891Z,92596.72
2024-01-15T02:46:18.402Z,92637.78
2024-01-15T02:48:45.678Z,92636.84
2024-01-15T02:51:12.458Z,92630.09
2024-01-15T02:53:40.400Z,92652.91
2024-01-15T02:56:09.179Z,92634.25
2024-01-15T02:58:35.620Z,92652.53
2024-01-15T03:01:02.459Z,92621.44
2024-01-15T03:03:29.150Z,92649.19
2024-01-15T03:05:55.928Z,92632.34
2024-01-15T03:08:23.924Z,92651.88
2024-01-15T03:10:50.571Z,92665.88
2024-01-15T03:13:17.108Z,92634.59
2024-01-15T03:15:49.793Z,92652.25
2024-01-15T03:18:16.423Z,92641.19
2024-01-15T03:20:43.004Z,92646.00
2024-01-15T03:23:09.501Z,92640.38
2024-01-15T03:25:35.991Z,92665.19
2024-01-15T03:28:02.455Z,92640.00
2024-01-15T03:30:28.955Z,92618.84
2024-01-15T03:32:55.464Z,92663.03
2024-01-15T03:35:21.968Z,92662.75
2024-01-15T03:37:48.423Z,92640.28
2024-01-15T03:40:16.036Z,92640.06
2024-01-15T03:42:43.715Z,92613.94
2024-01-15T03:45:10.590Z,92599.50
2024-01-15T03:47:38.478Z,92587.00
2024-01-15T03:50:05.368Z,92622.88
2024-01-15T03:52:41.151Z,92645.75
2024-01-15T03:55:08.017Z,92649.78
2024-01-15T03:57:34.822Z,92626.72
2024-01-15T04:00:01.345Z,92636.31
2024-01-15T04:02:28.015Z,92633.34
2024-01-15T04:04:54.607Z,92617.00
2024-01-15T04:07:21.203Z,92624.41
2024-01-15T04:09:47.791Z,92626.63
2024-01-15T04:12:25.105Z,92627.91
2024-01-15T04:14:51.577Z,92628.41
2024-01-15T04:17:18.870Z,92652.69
2024-01-15T04:19:45.750Z,92627.91
2024-01-15T04:22:19.378Z,92596.22
2024-01-15T04:24:45.866Z,92608.56
2024-01-15T04:27:12.472Z,92628.34
2024-01-15T04:29:41.616Z,92622.19
2024-01-15T04:32:08.559Z,92614.78
2024-01-15T04:34:35.173Z,92606.78
2024-01-15T04:37:01.712Z,92616.41
2024-01-15T04:39:28.272Z,92627.63
2024-01-15T04:41:54.732Z,92631.41
2024-01-15T04:44:21.256Z,92623.59
2024-01-15T04:46:47.734Z,92637.63
2024-01-15T04:49:14.391Z,92622.75
2024-01-15T04:51:41.005Z,92640.13
2024-01-15T04:54:07.620Z,92629.53
2024-01-15T04:56:34.145Z,92616.69
2024-01-15T04:59:02.631Z,92619.59
2024-01-15T05:01:33.633Z,92645.88
2024-01-15T05:04:00.852Z,92624.72
2024-01-15T05:06:27.640Z,92638.22
2024-01-15T05:08:54.319Z,92627.97
2024-01-15T05:11:20.782Z,92621.88
2024-01-15T05:13:47.209Z,92623.47
2024-01-15T05:16:13.623Z,92614.84
2024-01-15T05:18:40.208Z,92625.28
2024-01-15T05:21:06.741Z,92643.94
2024-01-15T05:23:33.200Z,92635.03
2024-01-15T05:25:59.618Z,92640.56
2024-01-15T05:28:26.066Z,92638.47
2024-01-15T05:30:53.402Z,92639.66
2024-01-15T05:33:19.943Z,92632.44
2024-01-15T05:35:46.387Z,92644.34
2024-01-15T05:38:13.750Z,92642.66
2024-01-15T05:40:40.182Z,92657.19
2024-01-15T05:43:06.604Z,92638.94
2024-01-15T05:45:33.040Z,92642.06
2024-01-15T05:47:59.730Z,92638.22
2024-01-15T05:50:26.264Z,92636.31
2024-01-15T05:52:54.002Z,92613.22
2024-01-15T05:55:21.445Z,92630.22
2024-01-15T05:57:48.048Z,92614.06
2024-01-15T06:00:16.250Z,92644.06
2024-01-15T06:02:44.646Z,92632.97
2024-01-15T06:05:11.546Z,92604.91
2024-01-15T06:07:38.003Z,92630.41
2024-01-15T06:10:05.995Z,92629.66
2024-01-15T06:12:40.296Z,92626.63
2024-01-15T06:15:06.972Z,92625.84
2024-01-15T06:17:34.173Z,92632.50
2024-01-15T06:20:00.753Z,92622.63
2024-01-15T06:22:27.218Z,92627.44
2024-01-15T06:24:53.802Z,92617.81
2024-01-15T06:27:20.344Z,92634.16
2024-01-15T06:29:51.376Z,92637.06
2024-01-15T06:32:18.044Z,92613.69
2024-01-15T06:34:44.620Z,92633.16
2024-01-15T06:37:11.098Z,92609.53
2024-01-15T06:39:37.587Z,92622.03
2024-01-15T06:42:04.314Z,92616.88
2024-01-15T06:44:31.212Z,92612.06
2024-01-15T06:47:00.792Z,92608.56
2024-01-15T06:49:27.403Z,92621.72
2024-01-15T06:51:53.971Z,92617.34
2024-01-15T06:54:21.559Z,92606.31
2024-01-15T06:56:47.999Z,92600.56
2024-01-15T06:59:16.042Z,92604.44
2024-01-15T07:01:44.086Z,92595.78
2024-01-15T07:04:11.223Z,92607.16
2024-01-15T07:06:37.767Z,92591.91
2024-01-15T07:09:04.266Z,92606.97
2024-01-15T07:11:30.701Z,92608.28
2024-01-15T07:13:57.109Z,92578.44
2024-01-15T07:16:36.169Z,92608.72
2024-01-15T07:19:04.639Z,92587.06
2024-01-15T07:21:31.265Z,92600.09
2024-01-15T07:23:57.789Z,92606.94
2024-01-15T07:26:24.238Z,92605.38
2024-01-15T07:28:50.648Z,92602.97
2024-01-15T07:31:18.391Z,92618.69
2024-01-15T07:33:44.916Z,92606.03
2024-01-15T07:36:11.414Z,92602.19
2024-01-15T07:38:38.064Z,92587.31
2024-01-15T07:41:04.896Z,92605.06
2024-01-15T07:43:31.340Z,92587.59
2024-01-15T07:45:58.576Z,92580.84
2024-01-15T07:48:25.146Z,92601.81
2024-01-15T07:50:51.655Z,92593.19
2024-01-15T07:53:18.168Z,92594.50
2024-01-15T07:55:46.868Z,92577.00
2024-01-15T07:58:16.506Z,92597.56
2024-01-15T08:00:48.901Z,92604.91
2024-01-15T08:03:16.827Z,92590.66
2024-01-15T08:05:43.368Z,92591.59
2024-01-15T08:08:09.846Z,92581.69
2024-01-15T08:10:36.252Z,92588.44
2024-01-15T08:13:02.792Z,92576.84
2024-01-15T08:15:31.496Z,92582.63
2024-01-15T08:17:58.773Z,92576.84
2024-01-15T08:20:25.466Z,92596.09
2024-01-15T08:22:51.993Z,92581.38
2024-01-15T08:25:18.449Z,92593.56
2024-01-15T08:27:46.834Z,92592.28
2024-01-15T08:30:13.925Z,92610.53
2024-01-15T08:32:43.978Z,92588.72
2024-01-15T08:35:11.070Z,92600.25
2024-01-15T08:37:38.639Z,92592.56
2024-01-15T08:40:05.658Z,92609.81
2024-01-15T08:42:32.165Z,92605.69
2024-01-15T08:44:58.608Z,92615.00
2024-01-15T08:47:25.951Z,92621.06
2024-01-15T08:49:52.408Z,92623.34
2024-01-15T08:52:18.919Z,92619.81
2024-01-15T08:54:45.827Z,92606.69
2024-01-15T08:57:12.821Z,92635.16
2024-01-15T08:59:39.914Z,92628.44
2024-01-15T09:02:06.386Z,92619.47
2024-01-15T09:04:32.869Z,92613.84
2024-01-15T09:07:01.346Z,92613.06
2024-01-15T09:09:28.569Z,92613.41
2024-01-15T09:11:55.035Z,92607.97
2024-01-15T09:14:32.983Z,92614.38
2024-01-15T09:17:04.683Z,92619.19
2024-01-15T09:19:31.247Z,92621.72
2024-01-15T09:21:57.736Z,92603.91
2024-01-15T09:24:27.843Z,92609.81
2024-01-15T09:26:55.431Z,92617.81
2024-01-15T09:29:21.904Z,92630.63
2024-01-15T09:31:48.404Z,92627.47
2024-01-15T09:34:14.963Z,92624.88
2024-01-15T09:36:43.248Z,92630.06
2024-01-15T09:39:12.072Z,92616.59
2024-01-15T09:41:39.336Z,92625.56
2024-01-15T09:44:06.519Z,92627.34
2024-01-15T09:46:33.945Z,92615.00
2024-01-15T09:49:00.946Z,92629.09
2024-01-15T09:51:27.513Z,92628.13
2024-01-15T09:53:56.169Z,92633.56
2024-01-15T09:56:22.874Z,92619.47
2024-01-15T09:58:49.858Z,92639.66
2024-01-15T10:01:18.309Z,92628.91
2024-01-15T10:03:45.391Z,92622.97
2024-01-15T10:06:18.164Z,92631.19
2024-01-15T10:08:50.761Z,92627.72
2024-01-15T10:11:17.699Z,92632.06
2024-01-15T10:13:50.475Z,92621.03
2024-01-15T10:16:17.527Z,92631.28
2024-01-15T10:18:44.080Z,92614.66
2024-01-15T10:21:10.762Z,92614.47
2024-01-15T10:23:37.358Z,92616.41
2024-01-15T10:26:04.872Z,92631.66
2024-01-15T10:28:32.754Z,92623.06
2024-01-15T10:31:00.840Z,92598.97
2024-01-15T10:33:28.018Z,92608.88
2024-01-15T10:35:56.417Z,92608.25
2024-01-15T10:38:23.925Z,92586.16
2024-01-15T10:40:57.367Z,92584.09
2024-01-15T10:43:28.290Z,92560.41
2024-01-15T10:45:56.359Z,92561.84
2024-01-15T10:48:23.417Z,92578.03
2024-01-15T10:50:49.970Z,92558.66
2024-01-15T10:53:17.962Z,92567.63
2024-01-15T10:55:44.808Z,92563.13
2024-01-15T10:58:11.333Z,92549.19
2024-01-15T11:00:39.163Z,92568.56
2024-01-15T11:03:09.080Z,92555.78
2024-01-15T11:05:39.817Z,92530.59
2024-01-15T11:08:08.184Z,92560.53
2024-01-15T11:10:43.756Z,92554.78
2024-01-15T11:13:11.710Z,92559.94
2024-01-15T11:16:00.812Z,92564.41
2024-01-15T11:18:40.402Z,92531.09
2024-01-15T11:21:08.366Z,92549.66
2024-01-15T11:23:52.593Z,92531.72
2024-01-15T11:26:45.520Z,92532.66
2024-01-15T11:29:31.225Z,92529.47
2024-01-15T11:32:11.134Z,92537.00
2024-01-15T11:35:01.957Z,92544.22
2024-01-15T11:37:49.693Z,92539.41
2024-01-15T11:40:22.327Z,92519.72
2024-01-15T11:42:50.412Z,92536.22
2024-01-15T11:45:21.380Z,92530.94
2024-01-15T11:48:12.286Z,92527.59
2024-01-15T11:51:00.261Z,92498.75
2024-01-15T11:53:45.142Z,92514.94
2024-01-15T11:56:18.377Z,92505.78
2024-01-15T11:58:45.168Z,92427.97
2024-01-15T12:01:12.311Z,92499.69
2024-01-15T12:03:38.957Z,92495.88
2024-01-15T12:06:10.275Z,92509.94
2024-01-15T12:08:41.938Z,92478.56
2024-01-15T12:11:14.407Z,92521.81
2024-01-15T12:13:40.928Z,92495.22
2024-01-15T12:16:07.605Z,92493.31
2024-01-15T12:18:34.339Z,92495.22
2024-01-15T12:21:00.827Z,92496.50
2024-01-15T12:23:28.492Z,92492.00
2024-01-15T12:25:55.236Z,92467.06
2024-01-15T12:28:23.586Z,92482.44
2024-01-15T12:30:56.743Z,92465.44
2024-01-15T12:33:23.450Z,92467.69
2024-01-15T12:35:49.978Z,92458.38
2024-01-15T12:38:16.463Z,92455.19
2024-01-15T12:40:47.341Z,92465.44
2024-01-15T12:43:13.864Z,92449.72
2024-01-15T12:45:49.729Z,92471.50
2024-01-15T12:48:18.952Z,92458.69
2024-01-15T12:50:46.786Z,92435.81
2024-01-15T12:53:13.436Z,92432.41
2024-01-15T12:55:39.872Z,92407.78
2024-01-15T12:58:06.329Z,92425.31
2024-01-15T13:00:32.779Z,92422.47
2024-01-15T13:03:15.900Z,92428.84
2024-01-15T13:05:42.664Z,92417.97
2024-01-15T13:08:10.204Z,92409.97
2024-01-15T13:10:37.188Z,92427.72
2024-01-15T13:13:03.851Z,92431.56
2024-01-15T13:15:30.355Z,92431.09
2024-01-15T13:17:57.281Z,92443.28
2024-01-15T13:20:23.784Z,92431.16
2024-01-15T13:22:52.689Z,92427.13
2024-01-15T13:25:19.242Z,92434.97
2024-01-15T13:27:45.987Z,92430.50
2024-01-15T13:30:13.864Z,92432.41
2024-01-15T13:32:42.888Z,92431.31
2024-01-15T13:35:11.193Z,92440.09
2024-01-15T13:37:39.321Z,92446.53
2024-01-15T13:40:08.380Z,92423.78
2024-01-15T13:42:34.880Z,92446.84
2024-01-15T13:45:01.333Z,92457.38
2024-01-15T13:47:27.770Z,92456.75
2024-01-15T13:49:54.717Z,92448.91
2024-01-15T13:52:25.270Z,92465.41
2024-01-15T13:54:51.745Z,92478.88
2024-01-15T13:57:19.531Z,92478.22
2024-01-15T13:59:47.025Z,92500.63
2024-01-15T14:02:17.689Z,92486.22
2024-01-15T14:04:47.401Z,92478.84
2024-01-15T14:07:13.918Z,92471.81
2024-01-15T14:09:43.165Z,92500.28
2024-01-15T14:12:09.639Z,92485.53
2024-01-15T14:14:38.118Z,92481.59
2024-01-15T14:17:06.978Z,92482.66
2024-01-15T14:19:34.143Z,92499.16
2024-01-15T14:22:00.771Z,92506.69
2024-01-15T14:24:27.662Z,92492.59
2024-01-15T14:26:54.133Z,92492.63
2024-01-15T14:29:23.438Z,92494.84
2024-01-15T14:31:50.133Z,92497.75
2024-01-15T14:34:19.395Z,92503.81
2024-01-15T14:36:47.133Z,92501.28
2024-01-15T14:39:13.588Z,92523.38
2024-01-15T14:41:40.173Z,92508.34
2024-01-15T14:44:06.704Z,92495.34
2024-01-15T14:46:33.181Z,92501.41
2024-01-15T14:48:59.859Z,92492.31
2024-01-15T14:51:26.470Z,92498.72
2024-01-15T14:53:53.986Z,92495.69
2024-01-15T14:56:21.953Z,92521.28
2024-01-15T14:58:48.554Z,92494.56
2024-01-15T15:01:15.318Z,92516.97
2024-01-15T15:03:45.620Z,92522.75
2024-01-15T15:06:13.598Z,92513.16
2024-01-15T15:08:51.379Z,92521.78
2024-01-15T15:11:17.830Z,92508.34
2024-01-15T15:13:46.061Z,92533.00
2024-01-15T15:16:17.141Z,92554.78
2024-01-15T15:18:47.566Z,92544.84
2024-01-15T15:21:19.866Z,92541.03
2024-01-15T15:23:56.624Z,92552.72
2024-01-15T15:26:32.143Z,92454.25
2024-01-15T15:28:58.615Z,92562.97
2024-01-15T15:31:26.111Z,92574.34
2024-01-15T15:33:52.754Z,92607.06
2024-01-15T15:36:20.235Z,92575.00
2024-01-15T15:38:46.861Z,92564.75
2024-01-15T15:41:14.409Z,92594.25
2024-01-15T15:43:40.870Z,92595.50
2024-01-15T15:46:07.874Z,92585.88
2024-01-15T15:48:35.253Z,92604.50
2024-01-15T15:51:03.629Z,92594.56
2024-01-15T15:53:30.073Z,92598.38
2024-01-15T15:55:59.691Z,92607.69
2024-01-15T15:58:26.244Z,92610.41
2024-01-15T16:00:52.874Z,92635.09
2024-01-15T16:03:29.648Z,92622.91
2024-01-15T16:06:00.502Z,92617.31
2024-01-15T16:08:42.258Z,92614.38
2024-01-15T16:11:08.931Z,92646.00
2024-01-15T16:13:36.405Z,92639.41
2024-01-15T16:23:09.470Z,92631.38
2024-01-15T16:23:22.957Z,92654.47
2024-01-15T16:23:38.247Z,92632.31
2024-01-15T16:24:46.159Z,92638.44
2024-01-15T16:27:19.976Z,92642.59
2024-01-15T16:29:46.480Z,92644.69
2024-01-15T16:32:15.047Z,92658.03
2024-01-15T16:34:41.550Z,92671.16
2024-01-15T16:37:09.418Z,92668.59
2024-01-15T16:39:36.012Z,92684.91
2024-01-15T16:42:02.511Z,92653.47
2024-01-15T16:44:29.111Z,92681.03
2024-01-15T16:47:02.365Z,92705.91
2024-01-15T16:49:31.866Z,92701.25
2024-01-15T16:52:08.273Z,92701.25
2024-01-15T16:54:36.264Z,92685.41
2024-01-15T16:57:02.760Z,92709.63
2024-01-15T16:59:31.246Z,92688.44
2024-01-15T17:01:58.208Z,92695.47
2024-01-15T17:04:25.308Z,92686.00
2024-01-15T17:06:51.803Z,92695.31
2024-01-15T17:09:18.292Z,92696.41
2024-01-15T17:11:44.799Z,92702.84
2024-01-15T17:14:11.295Z,92708.28
2024-01-15T17:16:37.722Z,92691.94
2024-01-15T17:19:04.744Z,92712.47
2024-01-15T17:21:31.230Z,92701.84
2024-01-15T17:23:59.179Z,92727.84
2024-01-15T17:26:26.877Z,92700.09
2024-01-15T17:28:55.553Z,92710.19
2024-01-15T17:31:22.128Z,92721.09
2024-01-15T17:33:49.837Z,92722.03
2024-01-15T17:36:16.402Z,92722.22
2024-01-15T17:38:43.919Z,92724.13
2024-01-15T17:41:10.614Z,92734.56
2024-01-15T17:43:37.853Z,92674.53
2024-01-15T17:46:05.029Z,92747.38
2024-01-15T17:48:32.835Z,92744.47
2024-01-15T17:51:00.948Z,92746.38
2024-01-15T17:53:27.605Z,92758.22
2024-01-15T17:55:54.097Z,92736.56
2024-01-15T17:58:20.815Z,92742.78
2024-01-15T18:00:47.309Z,92756.28
2024-01-15T18:03:13.870Z,92750.19
2024-01-15T18:05:40.441Z,92762.31
2024-01-15T18:08:06.923Z,92768.41
2024-01-15T18:10:33.404Z,92782.56
2024-01-15T18:13:01.086Z,92798.25
2024-01-15T18:15:29.602Z,92788.91
2024-01-15T18:17:56.279Z,92778.38
2024-01-15T18:20:22.908Z,92799.19
2024-01-15T18:22:51.613Z,92780.88
2024-01-15T18:25:18.404Z,92796.94
2024-01-15T18:27:44.868Z,92789.31
2024-01-15T18:30:14.499Z,92785.75
2024-01-15T18:32:41.163Z,92798.94
2024-01-15T18:35:07.840Z,92807.91
2024-01-15T18:37:34.629Z,92818.41
2024-01-15T18:40:01.191Z,92809.06
2024-01-15T18:42:28.323Z,92817.41
2024-01-15T18:45:02.693Z,92815.47
2024-01-15T18:47:29.149Z,92808.44
2024-01-15T18:49:57.733Z,92815.16
2024-01-15T18:52:24.164Z,92841.47
2024-01-15T18:54:50.636Z,92827.47
2024-01-15T18:57:19.153Z,92827.31
2024-01-15T18:59:46.769Z,92835.97
2024-01-15T19:02:13.303Z,92836.56
2024-01-15T19:04:39.999Z,92819.22
2024-01-15T19:07:09.377Z,92819.19
2024-01-15T19:09:36.996Z,92834.66
2024-01-15T19:12:04.047Z,92853.84
2024-01-15T19:14:30.875Z,92849.22
2024-01-15T19:16:58.067Z,92853.53
2024-01-15T19:19:25.349Z,92854.44
2024-01-15T19:21:51.984Z,92851.81
2024-01-15T19:24:18.577Z,92867.78
2024-01-15T19:26:45.230Z,92870.06
2024-01-15T19:29:11.759Z,92849.78
2024-01-15T19:31:38.249Z,92867.19
2024-01-15T19:34:05.387Z,92858.84
2024-01-15T19:36:32.743Z,92877.16
2024-01-15T19:38:59.278Z,92880.94
2024-01-15T19:41:25.764Z,92874.81
2024-01-15T19:43:53.569Z,92904.25
2024-01-15T19:46:20.124Z,92901.63
2024-01-15T19:48:46.860Z,92908.88
2024-01-15T19:51:16.414Z,92894.41
2024-01-15T19:53:43.431Z,92899.00
2024-01-15T19:56:10.293Z,92907.19
2024-01-15T19:58:46.984Z,92936.69
2024-01-15T20:01:29.794Z,92915.19
2024-01-15T20:03:56.601Z,92908.47
2024-01-15T20:06:24.550Z,92899.25
2024-01-15T20:08:53.282Z,92921.63
2024-01-15T20:11:20.075Z,92940.13
2024-01-15T20:13:47.210Z,92928.34
2024-01-15T20:16:14.469Z,92931.00
2024-01-15T20:18:46.492Z,92935.16
2024-01-15T20:21:13.026Z,92938.44
2024-01-15T20:23:50.395Z,92932.25
2024-01-15T20:26:22.023Z,92949.72
2024-01-15T20:28:48.640Z,92957.31
2024-01-15T20:31:15.327Z,92946.25
2024-01-15T20:33:42.136Z,92959.94
2024-01-15T20:36:09.326Z,92947.81
2024-01-15T20:38:37.153Z,92964.78
2024-01-15T20:41:03.985Z,92966.66
2024-01-15T20:43:30.605Z,92950.56
2024-01-15T20:45:57.236Z,92989.31
2024-01-15T20:48:25.054Z,92957.03
2024-01-15T20:50:51.986Z,92978.34
2024-01-15T20:53:18.482Z,92985.09
2024-01-15T20:55:45.009Z,92979.38
2024-01-15T20:58:11.720Z,93015.50
2024-01-15T21:00:38.688Z,92987.56
2024-01-15T21:03:05.736Z,93003.31
2024-01-15T21:05:33.476Z,93000.53
2024-01-15T21:08:00.082Z,92992.66
2024-01-15T21:10:26.536Z,92992.84
2024-01-15T21:12:52.983Z,93015.56
2024-01-15T21:15:19.651Z,92996.25
2024-01-15T21:17:49.212Z,93004.03
2024-01-15T21:20:17.109Z,92995.84
2024-01-15T21:22:43.637Z,93023.78
2024-01-15T21:25:11.082Z,92998.28
2024-01-15T21:27:41.858Z,93023.84
2024-01-15T21:30:11.907Z,93017.22
2024-01-15T21:32:38.477Z,92997.47
2024-01-15T21:35:05.297Z,93023.56
2024-01-15T21:37:32.336Z,93027.97
2024-01-15T21:39:58.849Z,92991.47
2024-01-15T21:42:25.666Z,93039.47
2024-01-15T21:44:52.112Z,93020.91
2024-01-15T21:47:18.555Z,93026.25
2024-01-15T21:49:46.917Z,93039.19
2024-01-15T21:52:13.355Z,93029.53
2024-01-15T21:54:40.794Z,93021.47
2024-01-15T21:57:08.187Z,93027.09
2024-01-15T21:59:34.742Z,93029.25
2024-01-15T22:02:05.328Z,93040.78
2024-01-15T22:04:32.002Z,93020.34
2024-01-15T22:06:58.562Z,93047.53
2024-01-15T22:09:25.063Z,93051.28
2024-01-15T22:11:51.567Z,93067.97
2024-01-15T22:14:23.326Z,93055.97
2024-01-15T22:16:50.929Z,93046.72
2024-01-15T22:19:18.551Z,93054.50
2024-01-15T22:21:45.604Z,93070.66
2024-01-15T22:24:12.170Z,93063.66
2024-01-15T22:26:39.497Z,93084.09
2024-01-15T22:29:07.261Z,93060.19
2024-01-15T22:31:35.114Z,93072.00
2024-01-15T22:34:01.676Z,93079.00
2024-01-15T22:36:28.230Z,93094.31
2024-01-15T22:38:54.730Z,93069.03
2024-01-15T22:41:21.216Z,93051.03
2024-01-15T22:43:47.721Z,93075.63
2024-01-15T22:46:14.807Z,93078.34
2024-01-15T22:48:41.404Z,93072.00
2024-01-15T22:51:08.129Z,93055.88
2024-01-15T22:53:34.625Z,93088.56
2024-01-15T22:56:04.186Z,93106.97
2024-01-15T22:58:30.637Z,93090.00
2024-01-15T23:00:59.705Z,93112.59
2024-01-15T23:03:26.366Z,93100.38
2024-01-15T23:05:52.933Z,93097.28
2024-01-15T23:08:19.453Z,93120.94
2024-01-15T23:10:46.306Z,93117.19
2024-01-15T23:13:13.007Z,93093.00
2024-01-15T23:15:39.614Z,93099.16
2024-01-15T23:18:06.931Z,93105.06
2024-01-15T23:20:33.708Z,93129.28
2024-01-15T23:23:00.143Z,93117.44
2024-01-15T23:25:26.811Z,93107.75
2024-01-15T23:27:53.454Z,93111.81
2024-01-15T23:30:20.981Z,93108.31
2024-01-15T23:32:48.912Z,93105.31
2024-01-15T23:35:15.776Z,93147.31
2024-01-15T23:37:42.228Z,93125.50
2024-01-15T23:40:09.447Z,93132.38
2024-01-15T23:42:36.191Z,93129.81
2024-01-15T23:45:02.653Z,93125.50
2024-01-15T23:47:29.301Z,93134.09
2024-01-15T23:49:55.934Z,93106.09
2024-01-15T23:52:22.348Z,93113.31
2024-01-15T23:54:48.834Z,93142.59
2024-01-15T23:57:15.529Z,93134.94
2024-01-15T23:59:42.172Z,93114.38
